Time;durP1;ratioP1;P1;durP2;ratioP2;P2;SDS_P1;SDS_P2;PMS_P1;PMS_P2;Temp;Humidity;BMP_temperature;BMP_pressure;BME280_temperature;BME280_humidity;BME280_pressure;Samples;Min_cycle;Max_cycle;Signal;HPM_P1;HPM_P2
2022/04/20 00:02:07;;;;;;;2.10;1.83;;;10.30;43.00;;;;;;945089;149;27329;-74
2022/04/20 00:04:32;;;;;;;1.90;1.80;;;10.30;43.00;;;;;;945173;151;27413;-74
2022/04/20 00:06:58;;;;;;;2.20;2.00;;;10.20;43.00;;;;;;944698;148;27450;-74
2022/04/20 00:09:25;;;;;;;2.00;1.90;;;10.20;43.00;;;;;;945671;151;27395;-74
2022/04/20 00:11:51;;;;;;;3.10;1.70;;;10.20;43.20;;;;;;945552;151;27438;-74
2022/04/20 00:14:18;;;;;;;2.47;1.90;;;10.20;43.30;;;;;;945458;151;27341;-74
2022/04/20 00:16:45;;;;;;;1.97;1.67;;;10.10;43.30;;;;;;943803;149;27905;-74
2022/04/20 00:19:11;;;;;;;2.97;1.70;;;10.10;43.40;;;;;;943864;149;27337;-74
2022/04/20 00:21:38;;;;;;;2.37;2.00;;;10.10;43.40;;;;;;945051;149;27328;-74
2022/04/20 00:24:04;;;;;;;1.97;1.70;;;10.00;43.50;;;;;;945222;149;27433;-75
2022/04/20 00:26:31;;;;;;;2.20;2.00;;;10.00;43.60;;;;;;945128;149;27356;-75
2022/04/20 00:28:58;;;;;;;1.43;1.40;;;10.00;43.70;;;;;;945448;148;27292;-74
2022/04/20 00:31:24;;;;;;;2.53;1.97;;;10.00;43.80;;;;;;944739;151;27293;-74
2022/04/20 00:33:51;;;;;;;3.80;2.10;;;9.90;44.50;;;;;;945328;151;27321;-74
2022/04/20 00:36:17;;;;;;;2.03;1.90;;;9.90;44.00;;;;;;945376;149;27333;-75
2022/04/20 00:38:44;;;;;;;2.37;1.93;;;9.90;43.90;;;;;;944980;151;27359;-73
2022/04/20 00:41:10;;;;;;;1.90;1.80;;;9.80;44.00;;;;;;945018;151;27476;-73
2022/04/20 00:43:37;;;;;;;2.77;1.87;;;9.80;44.20;;;;;;929150;154;27830;-73
2022/04/20 00:46:05;;;;;;;2.00;1.90;;;9.70;44.30;;;;;;930702;154;27453;-73
2022/04/20 00:48:30;;;;;;;1.90;1.80;;;9.70;44.50;;;;;;930566;153;27298;-73
2022/04/20 00:50:57;;;;;;;2.00;1.37;;;9.60;44.60;;;;;;930714;153;27362;-73
2022/04/20 00:53:23;;;;;;;2.00;1.80;;;9.60;44.50;;;;;;928523;151;27465;-72
2022/04/20 00:55:50;;;;;;;2.17;1.63;;;9.50;44.60;;;;;;945151;148;27280;-72
2022/04/20 00:58:17;;;;;;;2.23;1.90;;;9.50;44.70;;;;;;944575;148;27337;-73
2022/04/20 01:00:43;;;;;;;2.07;1.93;;;9.40;44.90;;;;;;945273;149;27446;-73
2022/04/20 01:03:10;;;;;;;2.43;2.00;;;9.40;44.90;;;;;;945234;151;27550;-74
2022/04/20 01:05:36;;;;;;;4.67;1.93;;;9.30;45.10;;;;;;930369;152;27455;-73
2022/04/20 01:08:03;;;;;;;1.83;1.73;;;9.30;45.20;;;;;;927179;150;27925;-73
2022/04/20 01:10:29;;;;;;;4.53;1.80;;;9.20;45.30;;;;;;944595;148;27310;-73
2022/04/20 01:12:56;;;;;;;4.20;1.73;;;9.20;45.30;;;;;;944046;148;27365;-73
2022/04/20 01:15:23;;;;;;;2.27;1.80;;;9.20;45.50;;;;;;943875;148;27377;-73
2022/04/20 01:17:49;;;;;;;2.10;1.70;;;9.10;45.40;;;;;;943958;148;27357;-73
2022/04/20 01:20:16;;;;;;;2.17;1.83;;;9.10;45.60;;;;;;945350;148;27434;-73
2022/04/20 01:22:42;;;;;;;2.10;1.90;;;9.00;45.70;;;;;;944068;148;27321;-73
2022/04/20 01:25:09;;;;;;;2.10;1.90;;;9.00;45.90;;;;;;944032;148;27417;-74
2022/04/20 01:27:36;;;;;;;1.97;1.80;;;9.00;46.10;;;;;;944459;148;27403;-73
2022/04/20 01:30:02;;;;;;;1.83;1.73;;;8.90;46.10;;;;;;943569;148;27430;-73
2022/04/20 01:32:29;;;;;;;3.03;1.93;;;8.90;46.90;;;;;;943806;148;27600;-73
2022/04/20 01:34:55;;;;;;;2.73;2.00;;;8.90;46.30;;;;;;943837;148;27391;-73
2022/04/20 01:37:22;;;;;;;3.17;1.90;;;8.80;46.20;;;;;;944044;148;27250;-73
2022/04/20 01:39:48;;;;;;;1.93;1.80;;;8.70;46.30;;;;;;944324;148;27340;-73
2022/04/20 01:42:15;;;;;;;3.23;2.00;;;8.70;46.50;;;;;;943949;148;27443;-73
2022/04/20 01:44:42;;;;;;;2.70;1.70;;;8.60;46.60;;;;;;944355;148;27368;-73
2022/04/20 01:47:08;;;;;;;1.97;1.87;;;8.60;46.80;;;;;;943963;148;27496;-73
2022/04/20 01:49:35;;;;;;;3.23;1.87;;;8.60;46.90;;;;;;943366;148;27702;-74
2022/04/20 01:52:01;;;;;;;1.97;1.80;;;8.50;46.90;;;;;;943761;148;27296;-73
2022/04/20 01:54:28;;;;;;;1.93;1.70;;;8.50;46.90;;;;;;943567;148;27379;-73
2022/04/20 01:56:55;;;;;;;1.93;1.80;;;8.50;47.10;;;;;;943872;148;27445;-73
2022/04/20 01:59:21;;;;;;;2.77;1.73;;;8.40;47.30;;;;;;943780;148;27440;-73
2022/04/20 02:04:34;;;;;;;2.33;1.73;;;8.40;47.60;;;;;;944343;148;27451;-73
2022/04/20 02:06:59;;;;;;;2.53;1.67;;;8.30;47.60;;;;;;943980;148;27382;-73
2022/04/20 02:09:26;;;;;;;1.70;1.60;;;8.20;47.70;;;;;;958516;146;27358;-73
2022/04/20 02:11:53;;;;;;;2.73;2.03;;;8.20;48.00;;;;;;960861;146;27369;-73
2022/04/20 02:14:19;;;;;;;1.70;1.60;;;8.10;48.10;;;;;;961171;146;27365;-73
2022/04/20 02:16:46;;;;;;;1.83;1.67;;;8.00;48.30;;;;;;961176;146;27366;-73
2022/04/20 02:19:12;;;;;;;1.73;1.63;;;7.90;48.40;;;;;;961255;146;27346;-73
2022/04/20 02:21:39;;;;;;;1.87;1.73;;;7.80;48.60;;;;;;961576;146;27403;-73
2022/04/20 02:24:05;;;;;;;1.80;1.70;;;7.70;48.80;;;;;;962101;146;27897;-73
2022/04/20 02:26:32;;;;;;;1.83;1.73;;;7.60;48.90;;;;;;961800;146;27346;-73
2022/04/20 02:28:59;;;;;;;1.70;1.60;;;7.50;49.00;;;;;;960422;146;27314;-73
2022/04/20 02:31:25;;;;;;;1.80;1.70;;;7.50;49.30;;;;;;960846;146;27327;-73
2022/04/20 02:33:52;;;;;;;2.10;1.97;;;7.40;49.30;;;;;;944061;149;27355;-73
2022/04/20 02:36:18;;;;;;;1.83;1.70;;;7.30;49.40;;;;;;951349;149;27432;-73
2022/04/20 02:38:45;;;;;;;2.00;1.73;;;7.20;49.50;;;;;;950855;149;27337;-73
2022/04/20 02:41:12;;;;;;;1.80;1.70;;;7.20;49.70;;;;;;951472;149;27948;-73
2022/04/20 02:43:38;;;;;;;1.97;1.77;;;7.10;49.80;;;;;;950879;149;27311;-73
2022/04/20 02:46:05;;;;;;;1.70;1.60;;;7.10;49.90;;;;;;951360;149;27640;-73
2022/04/20 02:48:31;;;;;;;2.30;1.80;;;7.00;49.90;;;;;;951260;149;27264;-73
2022/04/20 02:50:58;;;;;;;2.03;1.93;;;6.90;50.10;;;;;;951353;149;27435;-73
2022/04/20 02:53:24;;;;;;;2.00;1.77;;;6.90;50.30;;;;;;950770;150;28540;-73
2022/04/20 02:55:51;;;;;;;2.83;1.60;;;6.90;50.30;;;;;;950660;150;27315;-73
2022/04/20 02:58:18;;;;;;;1.80;1.70;;;6.90;50.50;;;;;;951301;149;27343;-73
2022/04/20 03:00:45;;;;;;;1.67;1.57;;;6.80;50.60;;;;;;951626;149;27275;-73
2022/04/20 03:03:12;;;;;;;1.80;1.70;;;6.80;50.80;;;;;;950935;148;27483;-73
2022/04/20 03:05:37;;;;;;;1.60;1.50;;;6.80;50.80;;;;;;950969;150;27961;-73
2022/04/20 03:08:04;;;;;;;1.70;1.60;;;6.80;51.00;;;;;;951580;149;27298;-73
2022/04/20 03:10:31;;;;;;;1.80;1.70;;;6.80;51.20;;;;;;946779;150;27449;-73
2022/04/20 03:12:57;;;;;;;2.10;1.90;;;6.80;51.30;;;;;;931201;151;27325;-73
2022/04/20 03:15:24;;;;;;;1.87;1.77;;;6.80;51.30;;;;;;948410;149;27313;-73
2022/04/20 03:17:50;;;;;;;2.07;1.87;;;6.70;51.30;;;;;;948756;149;27370;-73
2022/04/20 03:20:17;;;;;;;1.87;1.77;;;6.70;51.30;;;;;;948369;149;27249;-74
2022/04/20 03:22:43;;;;;;;1.77;1.50;;;6.70;51.30;;;;;;948718;149;28308;-73
2022/04/20 03:25:11;;;;;;;2.10;1.90;;;6.70;51.30;;;;;;948812;148;27308;-73
2022/04/20 03:27:37;;;;;;;1.90;1.70;;;6.70;51.30;;;;;;949155;148;27370;-73
2022/04/20 03:30:03;;;;;;;1.90;1.80;;;6.70;51.50;;;;;;948352;148;27360;-73
2022/04/20 03:32:30;;;;;;;2.10;1.90;;;6.60;52.20;;;;;;949025;148;27313;-74
2022/04/20 03:34:56;;;;;;;2.17;1.97;;;6.60;51.70;;;;;;948897;149;27409;-73
2022/04/20 03:37:23;;;;;;;1.80;1.70;;;6.60;51.70;;;;;;948726;148;27270;-73
2022/04/20 03:39:50;;;;;;;3.10;2.13;;;6.60;51.90;;;;;;948389;148;27422;-73
2022/04/20 03:42:16;;;;;;;1.97;1.87;;;6.60;52.00;;;;;;948937;148;27436;-73
2022/04/20 03:44:43;;;;;;;1.70;1.60;;;6.60;52.10;;;;;;948308;149;27761;-73
2022/04/20 03:47:09;;;;;;;2.13;1.83;;;6.60;52.20;;;;;;948126;148;27394;-73
2022/04/20 03:49:36;;;;;;;2.10;2.00;;;6.60;52.10;;;;;;948468;151;27423;-73
2022/04/20 03:52:02;;;;;;;2.00;1.80;;;6.60;52.30;;;;;;948647;149;27402;-73
2022/04/20 03:54:29;;;;;;;2.00;1.90;;;6.50;52.40;;;;;;948692;149;27343;-73
2022/04/20 03:57:04;;;;;;;1.97;1.87;;;6.50;52.40;;;;;;948892;148;27355;-73
2022/04/20 03:59:32;;;;;;;2.97;1.70;;;6.40;52.40;;;;;;948854;148;27351;-73
2022/04/20 04:01:58;;;;;;;2.33;1.63;;;6.40;52.30;;;;;;948317;151;27332;-73
2022/04/20 04:04:24;;;;;;;2.40;2.00;;;6.40;52.60;;;;;;948540;149;27348;-73
2022/04/20 04:06:51;;;;;;;2.63;2.10;;;6.30;52.80;;;;;;949082;148;27852;-73
2022/04/20 04:09:17;;;;;;;1.80;1.70;;;6.30;52.90;;;;;;947360;148;27404;-73
2022/04/20 04:11:44;;;;;;;2.53;1.90;;;6.30;52.90;;;;;;944052;148;27317;-73
2022/04/20 04:14:10;;;;;;;2.10;1.90;;;6.20;52.90;;;;;;943581;148;27266;-73
2022/04/20 04:16:37;;;;;;;1.67;1.57;;;6.20;53.10;;;;;;943009;148;27802;-73
2022/04/20 04:19:04;;;;;;;1.60;1.50;;;6.10;53.10;;;;;;943747;148;27846;-73
2022/04/20 04:21:31;;;;;;;1.73;1.63;;;6.10;53.20;;;;;;943835;148;27345;-73
2022/04/20 04:23:57;;;;;;;2.30;1.90;;;6.10;53.20;;;;;;943801;148;27313;-73
2022/04/20 04:26:23;;;;;;;2.07;1.53;;;6.00;53.30;;;;;;944058;148;27314;-73
2022/04/20 04:28:50;;;;;;;1.90;1.80;;;6.00;53.50;;;;;;944426;148;27362;-74
2022/04/20 04:31:17;;;;;;;1.83;1.57;;;6.00;54.30;;;;;;944661;148;27385;-73
2022/04/20 04:33:43;;;;;;;1.37;1.30;;;6.00;53.80;;;;;;944626;148;27445;-73
2022/04/20 04:36:10;;;;;;;2.03;1.83;;;5.90;53.80;;;;;;943946;148;28785;-73
2022/04/20 04:38:37;;;;;;;2.20;2.00;;;5.90;54.00;;;;;;942186;149;27340;-73
2022/04/20 04:41:03;;;;;;;2.23;2.03;;;5.90;54.10;;;;;;942032;149;27412;-73
2022/04/20 04:43:29;;;;;;;1.80;1.70;;;5.90;54.20;;;;;;942214;149;27347;-73
2022/04/20 04:48:42;;;;;;;2.13;1.70;;;5.90;54.50;;;;;;942828;149;27457;-73
2022/04/20 04:51:11;;;;;;;2.20;1.70;;;6.10;55.00;;;;;;942864;149;27358;-73
2022/04/20 04:53:37;;;;;;;2.30;2.20;;;6.20;55.10;;;;;;942506;149;27314;-73
2022/04/20 04:56:04;;;;;;;2.47;2.27;;;6.50;55.40;;;;;;942474;149;27961;-73
2022/04/20 04:58:30;;;;;;;2.47;2.10;;;6.80;55.60;;;;;;942576;149;27334;-73
2022/04/20 05:00:57;;;;;;;2.50;2.30;;;7.10;55.90;;;;;;942336;149;27889;-73
2022/04/20 05:03:24;;;;;;;7.27;2.37;;;7.60;56.10;;;;;;941575;149;27417;-73
2022/04/20 05:05:50;;;;;;;2.20;2.00;;;8.00;56.10;;;;;;942511;149;27407;-73
2022/04/20 05:08:17;;;;;;;3.87;2.33;;;8.60;56.10;;;;;;942397;149;27415;-73
2022/04/20 05:10:43;;;;;;;2.43;2.23;;;9.20;56.00;;;;;;942366;149;27410;-73
2022/04/20 05:13:10;;;;;;;2.50;2.30;;;9.80;55.80;;;;;;942146;149;27447;-73
2022/04/20 05:15:37;;;;;;;2.83;2.43;;;10.50;55.50;;;;;;942090;149;27455;-73
2022/04/20 05:18:03;;;;;;;2.40;2.20;;;11.10;55.10;;;;;;941814;149;27369;-73
2022/04/20 05:20:30;;;;;;;2.47;2.27;;;11.90;54.60;;;;;;942173;149;27362;-73
2022/04/20 05:22:57;;;;;;;3.10;2.10;;;12.50;53.90;;;;;;942227;149;27295;-73
2022/04/20 05:25:23;;;;;;;2.13;2.03;;;13.20;53.20;;;;;;942416;149;27446;-73
2022/04/20 05:27:49;;;;;;;2.27;2.07;;;13.90;52.50;;;;;;942200;149;27990;-73
2022/04/20 05:30:16;;;;;;;6.10;2.30;;;14.50;51.80;;;;;;941502;149;27875;-74
2022/04/20 05:32:43;;;;;;;2.23;1.97;;;15.10;51.30;;;;;;942255;149;27298;-74
2022/04/20 05:35:09;;;;;;;2.70;1.80;;;15.80;50.60;;;;;;942466;149;27341;-74
2022/04/20 05:43:05;;;;;;;2.15;1.90;;;17.70;48.30;;;;;;942569;149;27523;-74
2022/04/20 05:45:32;;;;;;;2.65;1.55;;;18.40;47.50;;;;;;942625;149;27474;-74
2022/04/20 05:47:58;;;;;;;2.90;1.60;;;18.90;46.70;;;;;;942061;149;27392;-74
2022/04/20 05:50:25;;;;;;;1.60;1.50;;;19.50;46.00;;;;;;942809;149;27824;-74
2022/04/20 05:52:52;;;;;;;2.08;1.67;;;20.10;45.30;;;;;;942410;149;27337;-74
2022/04/20 05:55:18;;;;;;;1.50;1.40;;;20.60;44.50;;;;;;942642;149;27865;-74
2022/04/20 05:57:47;;;;;;;1.72;1.42;;;21.10;44.00;;;;;;942684;149;27364;-74
2022/04/20 06:00:13;;;;;;;2.62;1.52;;;21.70;43.40;;;;;;941859;149;27464;-74
2022/04/20 06:02:38;;;;;;;5.83;1.90;;;22.10;42.80;;;;;;942412;149;27808;-74
2022/04/20 06:05:04;;;;;;;3.15;1.77;;;22.60;42.30;;;;;;942545;149;27356;-74
2022/04/20 06:07:31;;;;;;;1.85;1.57;;;23.20;41.80;;;;;;942037;149;27350;-74
2022/04/20 06:09:58;;;;;;;3.05;2.30;;;23.70;41.20;;;;;;941942;149;27442;-73
2022/04/20 06:12:24;;;;;;;3.47;2.10;;;24.20;40.40;;;;;;937699;152;27331;-73
2022/04/20 06:14:51;;;;;;;3.98;2.40;;;24.70;39.30;;;;;;938126;152;27298;-73
2022/04/20 06:17:17;;;;;;;2.08;1.72;;;25.00;38.50;;;;;;937816;152;27330;-73
2022/04/20 06:19:44;;;;;;;1.37;1.27;;;25.30;37.50;;;;;;938069;152;27371;-74
2022/04/20 06:22:11;;;;;;;1.60;1.45;;;25.50;36.80;;;;;;937815;150;27449;-73
2022/04/20 06:24:37;;;;;;;1.35;1.25;;;25.60;36.40;;;;;;938205;152;27357;-74
2022/04/20 06:27:05;;;;;;;1.70;1.45;;;25.70;35.70;;;;;;937628;152;27452;-73
2022/04/20 06:29:30;;;;;;;2.10;1.75;;;25.80;35.60;;;;;;937770;152;27404;-73
2022/04/20 06:31:57;;;;;;;1.50;1.40;;;25.90;35.40;;;;;;937638;150;27426;-73
2022/04/20 06:34:24;;;;;;;3.12;1.40;;;25.90;35.00;;;;;;937857;150;27438;-73
2022/04/20 06:36:50;;;;;;;2.17;1.45;;;26.00;34.90;;;;;;938211;152;27928;-74
2022/04/20 06:39:17;;;;;;;3.20;1.67;;;26.20;34.90;;;;;;936515;153;27253;-74
2022/04/20 06:41:43;;;;;;;1.42;1.32;;;26.30;34.50;;;;;;937659;152;27414;-73
2022/04/20 06:44:10;;;;;;;1.92;1.25;;;26.50;33.80;;;;;;938119;152;27328;-73
2022/04/20 06:46:37;;;;;;;1.60;1.27;;;26.50;33.40;;;;;;937998;152;27427;-73
2022/04/20 06:49:03;;;;;;;1.45;1.35;;;26.60;33.00;;;;;;937096;151;27353;-74
2022/04/20 06:58:31;;;;;;;1.77;1.67;;;26.60;32.40;;;;;;937742;150;27353;-74
2022/04/20 06:59:25;;;;;;;3.85;1.80;;;26.40;31.50;;;;;;937516;152;28398;-73
2022/04/20 07:01:52;;;;;;;3.15;1.90;;;26.20;31.10;;;;;;937860;152;27353;-73
2022/04/20 07:04:19;;;;;;;1.50;1.40;;;26.20;31.80;;;;;;938114;150;27387;-74
2022/04/20 07:06:45;;;;;;;1.98;1.87;;;26.20;31.90;;;;;;936469;152;27294;-73
2022/04/20 07:09:12;;;;;;;2.75;1.92;;;26.20;31.80;;;;;;937075;152;27457;-74
2022/04/20 07:11:38;;;;;;;1.50;1.40;;;26.30;31.60;;;;;;939290;149;27362;-73
2022/04/20 07:14:05;;;;;;;2.45;1.92;;;26.40;31.70;;;;;;942353;149;27357;-74
2022/04/20 07:16:32;;;;;;;1.92;1.72;;;26.60;31.20;;;;;;941840;149;27354;-74
2022/04/20 07:18:58;;;;;;;2.15;1.75;;;26.60;30.80;;;;;;942512;149;27349;-74
2022/04/20 07:21:25;;;;;;;1.50;1.27;;;26.70;30.60;;;;;;942751;149;27323;-74
2022/04/20 07:23:51;;;;;;;2.67;1.70;;;26.80;30.40;;;;;;942835;149;27416;-74
2022/04/20 07:26:18;;;;;;;2.25;2.05;;;26.90;30.50;;;;;;942060;149;27380;-74
2022/04/20 07:28:44;;;;;;;2.10;1.90;;;27.00;30.50;;;;;;942087;149;27444;-73
2022/04/20 07:31:11;;;;;;;1.67;1.50;;;27.10;30.50;;;;;;941710;149;27327;-74
2022/04/20 07:33:38;;;;;;;1.57;1.40;;;27.30;30.30;;;;;;942469;149;27322;-74
2022/04/20 07:36:04;;;;;;;3.70;1.57;;;27.40;30.00;;;;;;942214;149;27762;-74
2022/04/20 07:38:31;;;;;;;1.90;1.67;;;27.60;29.90;;;;;;942067;149;27400;-74
2022/04/20 07:40:57;;;;;;;1.67;1.57;;;27.70;29.80;;;;;;942268;149;27459;-74
2022/04/20 07:43:24;;;;;;;1.65;1.55;;;27.90;29.80;;;;;;941638;149;27957;-71
2022/04/20 07:45:51;;;;;;;1.47;1.37;;;28.00;29.50;;;;;;940631;149;27408;-74
2022/04/20 07:48:17;;;;;;;2.05;1.52;;;28.10;29.50;;;;;;941313;149;27333;-74
2022/04/20 07:50:44;;;;;;;1.72;1.62;;;28.20;28.90;;;;;;941448;149;28102;-74
2022/04/20 07:53:11;;;;;;;1.65;1.55;;;28.20;28.60;;;;;;942232;149;27450;-75
2022/04/20 07:55:38;;;;;;;2.37;1.60;;;28.30;28.90;;;;;;942498;149;27463;-74
2022/04/20 07:58:04;;;;;;;1.98;1.40;;;28.40;28.90;;;;;;942024;149;27329;-74
2022/04/20 08:00:30;;;;;;;1.95;1.62;;;28.60;29.10;;;;;;941814;149;27245;-74
2022/04/20 08:03:12;;;;;;;1.80;1.70;;;28.90;29.00;;;;;;942753;149;27468;-75
2022/04/20 08:05:38;;;;;;;1.65;1.30;;;29.10;28.50;;;;;;941974;149;27349;-75
2022/04/20 08:08:05;;;;;;;3.20;1.30;;;29.40;28.50;;;;;;941806;149;27358;-74
2022/04/20 08:10:31;;;;;;;1.75;1.65;;;29.50;28.30;;;;;;941761;149;27362;-74
2022/04/20 08:12:58;;;;;;;1.70;1.60;;;29.70;28.00;;;;;;940844;149;27374;-74
2022/04/20 08:15:24;;;;;;;1.40;1.32;;;29.90;27.80;;;;;;941169;149;28042;-74
2022/04/20 08:17:51;;;;;;;3.17;1.70;;;30.00;27.70;;;;;;942122;149;27353;-74
2022/04/20 08:20:18;;;;;;;1.67;1.57;;;30.10;27.80;;;;;;942403;149;27330;-74
2022/04/20 08:22:44;;;;;;;2.87;1.40;;;30.20;27.00;;;;;;942173;149;27413;-73
2022/04/20 08:25:11;;;;;;;1.60;1.50;;;30.30;26.80;;;;;;941343;149;27338;-73
2022/04/20 08:27:37;;;;;;;2.35;1.70;;;30.20;26.30;;;;;;941771;149;27332;-73
2022/04/20 08:30:04;;;;;;;2.15;1.40;;;30.20;25.40;;;;;;941668;149;27339;-75
2022/04/20 08:32:31;;;;;;;1.87;1.70;;;30.00;25.60;;;;;;942015;149;27450;-74
2022/04/20 08:34:57;;;;;;;3.83;1.70;;;29.90;25.90;;;;;;941968;149;27444;-74
2022/04/20 08:37:24;;;;;;;1.65;1.55;;;29.70;25.70;;;;;;942011;149;27311;-74
2022/04/20 08:39:50;;;;;;;1.67;1.57;;;29.70;25.80;;;;;;941907;149;27330;-74
2022/04/20 08:42:17;;;;;;;1.90;1.55;;;29.60;25.80;;;;;;942062;149;27656;-74
2022/04/20 08:44:44;;;;;;;1.62;1.40;;;29.60;26.00;;;;;;942243;149;27366;-75
2022/04/20 08:47:12;;;;;;;1.30;1.20;;;29.70;25.60;;;;;;942138;149;27351;-74
2022/04/20 08:49:37;;;;;;;2.58;1.70;;;29.70;25.60;;;;;;942560;149;27354;-73
2022/04/20 08:54:48;;;;;;;1.52;1.42;;;29.60;24.90;;;;;;942157;149;27481;-74
2022/04/20 08:57:20;;;;;;;1.52;1.40;;;29.50;24.90;;;;;;941465;149;27417;-73
2022/04/20 08:59:44;;;;;;;1.80;1.55;;;29.30;24.80;;;;;;941686;149;27481;-73
2022/04/20 09:02:14;;;;;;;1.50;1.40;;;29.10;24.80;;;;;;942321;149;27365;-73
2022/04/20 09:04:40;;;;;;;1.42;1.32;;;28.90;24.90;;;;;;942191;149;27346;-74
2022/04/20 09:07:07;;;;;;;1.60;1.40;;;28.70;24.90;;;;;;942094;149;27331;-74
2022/04/20 09:09:33;;;;;;;1.42;1.32;;;28.60;25.10;;;;;;942232;149;27446;-75
2022/04/20 09:12:00;;;;;;;3.35;1.57;;;28.60;25.30;;;;;;942385;149;27342;-73
2022/04/20 09:14:30;;;;;;;1.62;1.40;;;28.60;26.00;;;;;;928472;154;27468;-74
2022/04/20 09:16:56;;;;;;;1.35;1.25;;;28.70;25.40;;;;;;945061;148;27318;-74
2022/04/20 09:19:25;;;;;;;2.42;1.42;;;28.90;25.20;;;;;;945075;151;27323;-74
2022/04/20 09:21:52;;;;;;;1.37;1.27;;;28.90;24.60;;;;;;925978;155;27370;-73
2022/04/20 09:24:18;;;;;;;1.70;1.60;;;28.90;24.40;;;;;;944765;151;27332;-73
2022/04/20 09:26:51;;;;;;;1.70;1.60;;;28.70;24.30;;;;;;930326;153;27407;-73
2022/04/20 09:29:17;;;;;;;1.50;1.40;;;28.50;23.90;;;;;;929931;153;27412;-73
2022/04/20 09:31:46;;;;;;;1.47;1.10;;;28.30;24.20;;;;;;927892;154;27336;-74
2022/04/20 09:37:16;;;;;;;2.08;1.35;;;28.10;25.00;;;;;;941203;151;27310;-74
2022/04/20 09:39:48;;;;;;;2.52;1.40;;;28.00;24.90;;;;;;945094;148;27334;-73
2022/04/20 09:42:15;;;;;;;2.25;1.20;;;28.10;25.10;;;;;;945294;148;27402;-74
2022/04/20 09:44:41;;;;;;;3.08;1.25;;;28.00;24.80;;;;;;945445;151;27438;-73
2022/04/20 09:49:55;;;;;;;1.87;1.40;;;28.00;24.50;;;;;;944862;148;27359;-73
2022/04/20 09:52:21;;;;;;;1.80;1.30;;;27.90;24.60;;;;;;944207;149;27286;-74
2022/04/20 09:54:53;;;;;;;1.40;1.30;;;27.70;24.50;;;;;;945372;149;27306;-74
2022/04/20 09:57:20;;;;;;;1.30;1.20;;;27.60;24.40;;;;;;945503;148;27344;-73
2022/04/20 09:59:59;;;;;;;2.42;1.35;;;27.40;24.50;;;;;;945103;151;27346;-73
2022/04/20 10:02:27;;;;;;;1.20;1.20;;;27.10;24.40;;;;;;925391;155;27446;-74
2022/04/20 10:04:52;;;;;;;1.25;1.15;;;26.80;24.40;;;;;;945306;151;27411;-74
2022/04/20 10:07:18;;;;;;;1.32;1.22;;;26.50;24.50;;;;;;945100;149;27353;-73
2022/04/20 10:09:45;;;;;;;1.30;1.20;;;26.10;24.30;;;;;;945040;151;27870;-74
2022/04/20 10:12:12;;;;;;;2.42;1.42;;;25.80;24.50;;;;;;945468;151;27282;-73
2022/04/20 10:17:11;;;;;;;1.37;1.27;;;25.20;24.60;;;;;;928207;148;27335;-74
2022/04/20 10:19:39;;;;;;;1.60;1.50;;;24.90;24.60;;;;;;944722;148;27453;-75
2022/04/20 10:22:05;;;;;;;1.37;1.27;;;24.60;24.70;;;;;;943905;148;27329;-74
2022/04/20 10:24:31;;;;;;;1.52;1.40;;;24.30;24.80;;;;;;944598;148;27435;-74
2022/04/20 10:26:57;;;;;;;1.72;1.30;;;24.00;24.80;;;;;;945120;148;27310;-73
2022/04/20 10:29:39;;;;;;;3.10;1.47;;;23.70;24.80;;;;;;944826;148;27314;-73
2022/04/20 10:32:06;;;;;;;1.67;1.57;;;23.40;24.90;;;;;;942795;148;27503;-74
2022/04/20 10:34:32;;;;;;;1.92;1.47;;;23.10;25.00;;;;;;942880;148;27380;-74
2022/04/20 10:36:59;;;;;;;1.45;1.35;;;22.70;25.10;;;;;;943970;148;27435;-73
2022/04/20 10:39:27;;;;;;;1.55;1.45;;;22.40;25.30;;;;;;944855;148;27450;-74
2022/04/20 10:42:16;;;;;;;1.25;1.10;;;22.20;25.60;;;;;;944459;148;27313;-74
2022/04/20 10:44:59;;;;;;;4.17;2.30;;;21.90;25.60;;;;;;943654;148;27735;-74
2022/04/20 10:47:27;;;;;;;4.90;2.15;;;21.60;25.60;;;;;;943678;148;27359;-73
2022/04/20 10:49:54;;;;;;;2.30;2.10;;;21.20;25.70;;;;;;943406;148;27348;-73
2022/04/20 10:52:38;;;;;;;2.45;1.92;;;21.00;25.80;;;;;;942693;148;27387;-72
2022/04/20 10:55:05;;;;;;;4.35;2.17;;;20.70;26.00;;;;;;944081;148;27362;-74
2022/04/20 10:57:34;;;;;;;6.08;2.40;;;20.50;26.10;;;;;;944944;148;27326;-73
2022/04/20 11:00:19;;;;;;;2.22;1.60;;;20.30;26.10;;;;;;945204;148;27298;-73
2022/04/20 11:02:49;;;;;;;1.67;1.57;;;20.20;26.10;;;;;;943780;148;27360;-73
2022/04/20 11:05:15;;;;;;;1.57;1.47;;;20.00;26.20;;;;;;943284;148;27298;-73
2022/04/20 11:08:00;;;;;;;1.30;1.20;;;19.80;26.30;;;;;;943856;148;27386;-73
2022/04/20 11:10:27;;;;;;;1.17;1.17;;;19.70;26.50;;;;;;944631;148;27446;-73
2022/04/20 11:18:38;;;;;;;1.70;1.37;;;19.30;26.80;;;;;;943679;147;27820;-73
2022/04/20 11:21:07;;;;;;;1.55;1.42;;;19.20;26.90;;;;;;955535;147;27503;-73
2022/04/20 11:23:53;;;;;;;1.92;1.37;;;19.10;27.00;;;;;;956019;147;27776;-73
2022/04/20 11:26:23;;;;;;;6.40;1.42;;;19.00;27.00;;;;;;956102;147;27342;-73
2022/04/20 11:28:48;;;;;;;1.47;1.37;;;19.00;27.20;;;;;;955405;147;27342;-73
2022/04/20 11:31:15;;;;;;;1.32;1.22;;;18.90;27.30;;;;;;956335;147;27397;-73
2022/04/20 11:33:41;;;;;;;1.55;1.35;;;18.80;27.30;;;;;;956133;147;27436;-73
2022/04/20 11:36:08;;;;;;;1.82;1.52;;;18.80;27.80;;;;;;956591;147;27405;-73
2022/04/20 11:38:41;;;;;;;1.42;1.32;;;18.80;27.50;;;;;;955994;147;27293;-73
2022/04/20 11:41:07;;;;;;;2.55;1.60;;;18.80;27.60;;;;;;956175;147;27452;-74
2022/04/20 11:43:35;;;;;;;4.85;1.42;;;18.80;27.80;;;;;;955750;147;27331;-74
2022/04/20 11:46:00;;;;;;;3.45;1.55;;;18.80;27.80;;;;;;956168;147;27754;-74
2022/04/20 11:48:27;;;;;;;1.72;1.55;;;18.80;27.70;;;;;;956360;147;27315;-73
2022/04/20 11:50:53;;;;;;;1.55;1.32;;;18.90;27.70;;;;;;955983;147;27819;-74
2022/04/20 11:53:20;;;;;;;2.72;1.30;;;18.90;27.80;;;;;;955749;147;27343;-73
2022/04/20 11:55:46;;;;;;;2.02;1.87;;;18.90;27.80;;;;;;956279;147;27389;-73
2022/04/20 11:58:13;;;;;;;1.50;1.40;;;19.00;27.80;;;;;;956028;147;27383;-73
2022/04/20 12:00:41;;;;;;;1.47;1.37;;;19.00;27.80;;;;;;957116;147;27766;-73
2022/04/20 12:03:06;;;;;;;1.35;1.25;;;18.90;27.80;;;;;;956400;147;27359;-73
2022/04/20 12:05:33;;;;;;;1.60;1.50;;;19.00;27.90;;;;;;956266;147;27272;-73
2022/04/20 12:07:59;;;;;;;1.45;1.35;;;18.90;27.90;;;;;;957148;147;27339;-72
2022/04/20 12:10:26;;;;;;;1.37;1.27;;;18.90;27.90;;;;;;956795;147;27351;-74
2022/04/20 12:12:53;;;;;;;3.05;1.50;;;18.90;28.00;;;;;;957307;147;27489;-73
2022/04/20 12:15:20;;;;;;;1.50;1.40;;;18.90;28.00;;;;;;941744;147;27346;-73
2022/04/20 12:17:46;;;;;;;1.60;1.50;;;18.90;28.00;;;;;;927993;154;27405;-73
2022/04/20 12:20:12;;;;;;;1.65;1.30;;;18.90;27.60;;;;;;945455;149;27284;-73
2022/04/20 12:22:39;;;;;;;1.37;1.27;;;18.90;28.20;;;;;;945431;151;27378;-74
2022/04/20 12:25:06;;;;;;;2.17;1.15;;;18.90;28.80;;;;;;929013;151;27382;-74
2022/04/20 12:27:32;;;;;;;2.75;1.80;;;18.90;28.60;;;;;;945413;149;27759;-73
2022/04/20 12:29:59;;;;;;;1.27;1.17;;;19.00;28.50;;;;;;943068;149;27390;-73
2022/04/20 12:32:25;;;;;;;1.70;1.60;;;19.00;28.50;;;;;;945371;151;27422;-73
2022/04/20 12:34:53;;;;;;;1.60;1.50;;;19.00;28.60;;;;;;945486;149;27321;-73
2022/04/20 12:37:20;;;;;;;1.50;1.40;;;19.00;28.50;;;;;;944886;149;27343;-73
2022/04/20 12:39:45;;;;;;;1.50;1.27;;;19.10;28.50;;;;;;945211;151;27353;-72
2022/04/20 12:42:12;;;;;;;1.55;1.45;;;19.10;28.50;;;;;;945422;149;27704;-74
2022/04/20 12:44:48;;;;;;;1.20;1.10;;;19.10;28.60;;;;;;945238;149;27325;-73
2022/04/20 12:47:17;;;;;;;3.92;1.50;;;19.10;28.50;;;;;;945162;149;27406;-73
2022/04/20 12:50:03;;;;;;;1.30;1.20;;;19.10;28.50;;;;;;944751;151;27365;-73
2022/04/20 12:52:29;;;;;;;1.82;1.20;;;19.10;28.50;;;;;;944386;151;27258;-74
2022/04/20 12:54:56;;;;;;;1.85;1.25;;;19.10;28.70;;;;;;945221;149;27290;-73
2022/04/20 13:03:08;;;;;;;1.30;1.20;;;19.20;28.80;;;;;;944972;149;27523;-73
2022/04/20 13:05:35;;;;;;;1.40;1.30;;;19.20;28.90;;;;;;945793;149;27316;-74
2022/04/20 13:08:01;;;;;;;1.27;1.17;;;19.20;28.90;;;;;;944663;151;27323;-73
2022/04/20 13:10:27;;;;;;;1.75;1.40;;;19.20;28.90;;;;;;945440;151;27312;-73
2022/04/20 13:12:54;;;;;;;1.37;1.32;;;19.20;29.00;;;;;;945406;151;27371;-74
2022/04/20 13:15:21;;;;;;;1.70;1.60;;;19.20;29.00;;;;;;945111;148;27416;-73
2022/04/20 13:17:47;;;;;;;1.40;1.30;;;19.20;29.10;;;;;;944054;148;27339;-74
2022/04/20 13:20:14;;;;;;;1.60;1.50;;;19.30;29.20;;;;;;943766;148;27334;-73
2022/04/20 13:22:40;;;;;;;3.47;1.30;;;19.30;29.20;;;;;;944345;148;27313;-73
2022/04/20 13:27:54;;;;;;;1.47;1.17;;;19.30;29.20;;;;;;944028;148;27519;-74
2022/04/20 13:30:24;;;;;;;2.45;1.37;;;19.30;29.40;;;;;;943713;148;27406;-73
2022/04/20 13:32:50;;;;;;;1.12;1.02;;;19.40;29.50;;;;;;944392;148;27401;-73